N414WB KMYR-KILM
Flight info
| Callsign | N414WB |
|---|---|
| Flight time | 0h 24m |
| Altitude | 9500 |
| Route | ILM |
| Aircraft | C414/L-SBDFGRY/S |
Departure
| Time | 2026-04-25 19:08 |
|---|---|
| Airport | Myrtle Beach International Airport (KMYR) |
Arrival
| Time | 2026-04-25 19:33 |
|---|---|
| Airport | Wilmington International Airport (KILM) |
| Time | Latitude | Longitude | Altitude | Speed | Heading |
|---|---|---|---|---|---|
| 2026-04-25 18:39 | 33.67418 | -78.93226 | 26 ft | 0 kts | 345° |
| 2026-04-25 18:59 | 33.67419 | -78.93227 | 26 ft | 0 kts | 345° |
| 2026-04-25 18:59 | 33.67442 | -78.93145 | 26 ft | 9 kts | 84° |
| 2026-04-25 19:00 | 33.67541 | -78.93092 | 27 ft | 11 kts | 348° |
| 2026-04-25 19:00 | 33.67592 | -78.93105 | 26 ft | 11 kts | 348° |
| 2026-04-25 19:01 | 33.67760 | -78.93145 | 26 ft | 13 kts | 348° |
| 2026-04-25 19:01 | 33.67852 | -78.93168 | 26 ft | 14 kts | 349° |
| 2026-04-25 19:01 | 33.67957 | -78.93193 | 26 ft | 17 kts | 348° |
| 2026-04-25 19:01 | 33.68089 | -78.93226 | 26 ft | 22 kts | 347° |
| 2026-04-25 19:02 | 33.68428 | -78.93311 | 26 ft | 26 kts | 348° |
| 2026-04-25 19:02 | 33.68608 | -78.93356 | 26 ft | 27 kts | 348° |
| 2026-04-25 19:02 | 33.68790 | -78.93402 | 26 ft | 27 kts | 348° |
| 2026-04-25 19:03 | 33.69088 | -78.93475 | 27 ft | 20 kts | 349° |
| 2026-04-25 19:03 | 33.69202 | -78.93391 | 27 ft | 14 kts | 75° |
| 2026-04-25 19:03 | 33.69240 | -78.93320 | 27 ft | 8 kts | 27° |
| 2026-04-25 19:04 | 33.69243 | -78.93300 | 27 ft | 0 kts | 175° |
| 2026-04-25 19:06 | 33.69239 | -78.93300 | 27 ft | 3 kts | 175° |
| 2026-04-25 19:06 | 33.69239 | -78.93159 | 28 ft | 12 kts | 115° |
| 2026-04-25 19:06 | 33.69173 | -78.93131 | 28 ft | 9 kts | 168° |
| 2026-04-25 19:07 | 33.68507 | -78.92965 | 48 ft | 80 kts | 168° |
| 2026-04-25 19:07 | 33.67942 | -78.92820 | 177 ft | 84 kts | 170° |
| 2026-04-25 19:08 | 33.66765 | -78.92515 | 561 ft | 90 kts | 167° |
| 2026-04-25 19:08 | 33.66175 | -78.92223 | 888 ft | 94 kts | 143° |
| 2026-04-25 19:09 | 33.66382 | -78.89668 | 2050 ft | 124 kts | 47° |
| 2026-04-25 19:09 | 33.66839 | -78.89227 | 2232 ft | 132 kts | 32° |
| 2026-04-25 19:09 | 33.68785 | -78.88103 | 3100 ft | 135 kts | 21° |
| 2026-04-25 19:10 | 33.69658 | -78.87675 | 3460 ft | 135 kts | 25° |
| 2026-04-25 19:10 | 33.70505 | -78.87197 | 3833 ft | 135 kts | 24° |
| 2026-04-25 19:10 | 33.71364 | -78.86688 | 4135 ft | 141 kts | 31° |
| 2026-04-25 19:10 | 33.72103 | -78.85921 | 4477 ft | 142 kts | 54° |
| 2026-04-25 19:11 | 33.72654 | -78.84951 | 4841 ft | 140 kts | 60° |
| 2026-04-25 19:11 | 33.73192 | -78.83962 | 5109 ft | 141 kts | 58° |
| 2026-04-25 19:11 | 33.73751 | -78.82989 | 5377 ft | 141 kts | 56° |
| 2026-04-25 19:11 | 33.74316 | -78.82029 | 5657 ft | 141 kts | 58° |
| 2026-04-25 19:12 | 33.74856 | -78.81038 | 6007 ft | 143 kts | 59° |
| 2026-04-25 19:12 | 33.75392 | -78.80053 | 6387 ft | 141 kts | 57° |
| 2026-04-25 19:12 | 33.75973 | -78.79067 | 6677 ft | 147 kts | 52° |
| 2026-04-25 19:12 | 33.76576 | -78.78062 | 7038 ft | 148 kts | 56° |
| 2026-04-25 19:13 | 33.77186 | -78.77058 | 7416 ft | 149 kts | 55° |
| 2026-04-25 19:13 | 33.77777 | -78.76034 | 7781 ft | 149 kts | 54° |
| 2026-04-25 19:13 | 33.78370 | -78.75008 | 7981 ft | 150 kts | 54° |
| 2026-04-25 19:13 | 33.78970 | -78.73987 | 8236 ft | 150 kts | 53° |
| 2026-04-25 19:14 | 33.79577 | -78.72965 | 8531 ft | 150 kts | 53° |
| 2026-04-25 19:14 | 33.79976 | -78.72287 | 8757 ft | 150 kts | 54° |
| 2026-04-25 19:14 | 33.80770 | -78.70899 | 9258 ft | 150 kts | 53° |
| 2026-04-25 19:14 | 33.81392 | -78.69834 | 9486 ft | 167 kts | 53° |
| 2026-04-25 19:15 | 33.82104 | -78.68598 | 9499 ft | 189 kts | 53° |
| 2026-04-25 19:15 | 33.82875 | -78.67268 | 9499 ft | 198 kts | 53° |
| 2026-04-25 19:15 | 33.83681 | -78.65884 | 9496 ft | 205 kts | 53° |
| 2026-04-25 19:15 | 33.84505 | -78.64462 | 9497 ft | 208 kts | 53° |
| 2026-04-25 19:16 | 33.85338 | -78.63029 | 9496 ft | 209 kts | 53° |
| 2026-04-25 19:16 | 33.86175 | -78.61584 | 9486 ft | 212 kts | 53° |
| 2026-04-25 19:16 | 33.87021 | -78.60124 | 9489 ft | 215 kts | 53° |
| 2026-04-25 19:16 | 33.87885 | -78.58639 | 9483 ft | 217 kts | 53° |
| 2026-04-25 19:17 | 33.88735 | -78.57176 | 9479 ft | 215 kts | 53° |
| 2026-04-25 19:17 | 33.89600 | -78.55675 | 9488 ft | 217 kts | 54° |
| 2026-04-25 19:17 | 33.90469 | -78.54163 | 9499 ft | 223 kts | 53° |
| 2026-04-25 19:17 | 33.91372 | -78.52623 | 9471 ft | 224 kts | 53° |
| 2026-04-25 19:18 | 33.92227 | -78.51117 | 9480 ft | 219 kts | 54° |
| 2026-04-25 19:18 | 33.93092 | -78.49619 | 9476 ft | 215 kts | 53° |
| 2026-04-25 19:18 | 33.93929 | -78.48177 | 9471 ft | 206 kts | 54° |
| 2026-04-25 19:18 | 33.94734 | -78.46793 | 9474 ft | 197 kts | 52° |
| 2026-04-25 19:19 | 33.95520 | -78.45450 | 9446 ft | 199 kts | 53° |
| 2026-04-25 19:19 | 33.96333 | -78.44038 | 9172 ft | 210 kts | 54° |
| 2026-04-25 19:19 | 33.97183 | -78.42575 | 8873 ft | 216 kts | 53° |
| 2026-04-25 19:19 | 33.97765 | -78.41561 | 8741 ft | 219 kts | 55° |
| 2026-04-25 19:20 | 33.98913 | -78.39538 | 8461 ft | 222 kts | 55° |
| 2026-04-25 19:20 | 33.99798 | -78.38007 | 8106 ft | 223 kts | 55° |
| 2026-04-25 19:20 | 34.00684 | -78.36478 | 7782 ft | 221 kts | 55° |
| 2026-04-25 19:20 | 34.01550 | -78.34974 | 7513 ft | 217 kts | 56° |
| 2026-04-25 19:21 | 34.02403 | -78.33492 | 7251 ft | 214 kts | 56° |
| 2026-04-25 19:21 | 34.04085 | -78.30565 | 6840 ft | 211 kts | 57° |
| 2026-04-25 19:21 | 34.04929 | -78.29124 | 6626 ft | 209 kts | 56° |
| 2026-04-25 19:22 | 34.05751 | -78.27678 | 6512 ft | 209 kts | 58° |
| 2026-04-25 19:22 | 34.06569 | -78.26231 | 6391 ft | 208 kts | 57° |
| 2026-04-25 19:22 | 34.08215 | -78.23371 | 5842 ft | 207 kts | 57° |
| 2026-04-25 19:23 | 34.09036 | -78.21944 | 5572 ft | 207 kts | 57° |
| 2026-04-25 19:23 | 34.10667 | -78.19106 | 5069 ft | 205 kts | 57° |
| 2026-04-25 19:23 | 34.11475 | -78.17693 | 4813 ft | 204 kts | 57° |
| 2026-04-25 19:24 | 34.12280 | -78.16282 | 4554 ft | 203 kts | 57° |
| 2026-04-25 19:24 | 34.13077 | -78.14879 | 4326 ft | 202 kts | 58° |
| 2026-04-25 19:24 | 34.14680 | -78.12108 | 3835 ft | 201 kts | 57° |
| 2026-04-25 19:25 | 34.16255 | -78.09341 | 3487 ft | 199 kts | 58° |
| 2026-04-25 19:25 | 34.17039 | -78.07972 | 3317 ft | 198 kts | 58° |
| 2026-04-25 19:25 | 34.17822 | -78.06608 | 3202 ft | 197 kts | 58° |
| 2026-04-25 19:26 | 34.18594 | -78.05241 | 2981 ft | 197 kts | 58° |
| 2026-04-25 19:26 | 34.19368 | -78.03878 | 2789 ft | 197 kts | 58° |
| 2026-04-25 19:26 | 34.20146 | -78.02522 | 2629 ft | 196 kts | 57° |
| 2026-04-25 19:26 | 34.20920 | -78.01171 | 2391 ft | 195 kts | 57° |
| 2026-04-25 19:27 | 34.21689 | -77.99848 | 2254 ft | 195 kts | 57° |
| 2026-04-25 19:27 | 34.22205 | -77.98934 | 2216 ft | 192 kts | 58° |
| 2026-04-25 19:27 | 34.23180 | -77.97174 | 2020 ft | 184 kts | 58° |
| 2026-04-25 19:27 | 34.23841 | -77.95891 | 1788 ft | 184 kts | 64° |
| 2026-04-25 19:28 | 34.24494 | -77.94534 | 1614 ft | 184 kts | 62° |
| 2026-04-25 19:28 | 34.25197 | -77.93250 | 1525 ft | 181 kts | 58° |
| 2026-04-25 19:28 | 34.25926 | -77.92067 | 1441 ft | 170 kts | 57° |
| 2026-04-25 19:28 | 34.26620 | -77.90959 | 1464 ft | 162 kts | 57° |
| 2026-04-25 19:29 | 34.27285 | -77.89933 | 1446 ft | 149 kts | 50° |
| 2026-04-25 19:29 | 34.28105 | -77.89258 | 1352 ft | 140 kts | 25° |
| 2026-04-25 19:29 | 34.29037 | -77.88950 | 1172 ft | 137 kts | 6° |
| 2026-04-25 19:29 | 34.29955 | -77.88950 | 1132 ft | 130 kts | 355° |
| 2026-04-25 19:30 | 34.30826 | -77.89164 | 1031 ft | 124 kts | 325° |
| 2026-04-25 19:30 | 34.31396 | -77.89851 | 897 ft | 111 kts | 289° |
| 2026-04-25 19:30 | 34.31550 | -77.90695 | 793 ft | 96 kts | 254° |
| 2026-04-25 19:30 | 34.31324 | -77.91406 | 699 ft | 89 kts | 225° |
| 2026-04-25 19:31 | 34.30785 | -77.91756 | 579 ft | 90 kts | 189° |
| 2026-04-25 19:31 | 34.30192 | -77.91765 | 503 ft | 81 kts | 175° |
| 2026-04-25 19:31 | 34.29649 | -77.91602 | 363 ft | 84 kts | 165° |
| 2026-04-25 19:31 | 34.29110 | -77.91363 | 241 ft | 82 kts | 166° |
| 2026-04-25 19:32 | 34.28565 | -77.91115 | 119 ft | 87 kts | 164° |
| 2026-04-25 19:32 | 34.28008 | -77.90863 | 46 ft | 79 kts | 161° |
| 2026-04-25 19:32 | 34.27548 | -77.90654 | 30 ft | 62 kts | 161° |
| 2026-04-25 19:32 | 34.27420 | -77.90596 | 29 ft | 55 kts | 159° |
| 2026-04-25 19:33 | 34.27021 | -77.90414 | 27 ft | 23 kts | 158° |
| 2026-04-25 19:33 | 34.26876 | -77.90412 | 26 ft | 20 kts | 207° |
| 2026-04-25 19:33 | 34.26810 | -77.90488 | 27 ft | 7 kts | 236° |
| 2026-04-25 19:33 | 34.26810 | -77.90520 | 27 ft | 11 kts | 305° |
| 2026-04-25 19:34 | 34.26898 | -77.90568 | 27 ft | 16 kts | 340° |
| 2026-04-25 19:34 | 34.27012 | -77.90620 | 28 ft | 19 kts | 339° |
| 2026-04-25 19:34 | 34.27116 | -77.90684 | 29 ft | 16 kts | 324° |
| 2026-04-25 19:34 | 34.27217 | -77.90758 | 29 ft | 18 kts | 332° |
| 2026-04-25 19:35 | 34.27334 | -77.90834 | 30 ft | 18 kts | 332° |
| 2026-04-25 19:35 | 34.27373 | -77.90908 | 30 ft | 11 kts | 240° |
| 2026-04-25 19:35 | 34.27377 | -77.90987 | 30 ft | 11 kts | 314° |
| 2026-04-25 19:35 | 34.27423 | -77.90999 | 30 ft | 5 kts | 78° |
| 2026-04-25 19:36 | 34.27425 | -77.90988 | 30 ft | 0 kts | 77° |